createdAt,value
2018-09-03T00:02:27.865Z,4.73
2018-09-03T00:06:36.207Z,4.50
2018-09-03T00:10:44.504Z,3.90
2018-09-03T00:14:52.883Z,4.30
2018-09-03T00:19:01.295Z,4.20
2018-09-03T00:23:09.594Z,4.73
2018-09-03T00:27:17.936Z,4.77
2018-09-03T00:31:31.833Z,4.40
2018-09-03T00:35:45.673Z,3.80
2018-09-03T00:39:59.516Z,3.80
2018-09-03T00:44:13.168Z,4.00
2018-09-03T00:48:21.469Z,4.03
2018-09-03T00:52:29.747Z,4.23
2018-09-03T00:56:38.047Z,4.63
2018-09-03T01:00:46.352Z,4.13
2018-09-03T01:04:54.705Z,4.57
2018-09-03T01:09:03.254Z,4.80
2018-09-03T01:13:11.669Z,4.90
2018-09-03T01:17:19.997Z,4.40
2018-09-03T01:21:28.335Z,5.33
2018-09-03T01:25:36.643Z,4.80
2018-09-03T01:29:45.000Z,5.00
2018-09-03T01:33:54.575Z,4.40
2018-09-03T01:38:02.910Z,5.37
2018-09-03T01:42:11.181Z,4.47
2018-09-03T01:46:19.527Z,4.90
2018-09-03T01:50:27.821Z,5.10
2018-09-03T01:54:36.089Z,6.07
2018-09-03T01:58:44.414Z,5.50
2018-09-03T02:02:52.736Z,4.95
2018-09-03T02:07:01.741Z,4.70
2018-09-03T02:11:10.066Z,4.70
2018-09-03T02:15:18.448Z,6.30
2018-09-03T02:19:26.770Z,6.20
2018-09-03T02:23:35.099Z,5.70
2018-09-03T02:27:43.442Z,5.73
2018-09-03T02:31:51.773Z,5.37
2018-09-03T02:36:00.112Z,6.30
2018-09-03T02:40:08.508Z,5.60
2018-09-03T02:44:16.830Z,6.00
2018-09-03T02:48:31.780Z,6.00
2018-09-03T02:52:40.194Z,5.30
2018-09-03T02:56:48.244Z,5.10
2018-09-03T03:00:56.544Z,5.07
2018-09-03T03:05:05.959Z,5.90
2018-09-03T03:09:14.305Z,5.70
2018-09-03T03:13:22.634Z,6.07
2018-09-03T03:17:30.982Z,5.70
2018-09-03T03:21:39.283Z,6.20
2018-09-03T03:25:47.641Z,5.80
2018-09-03T03:29:55.980Z,6.08
2018-09-03T03:34:04.358Z,6.60
2018-09-03T03:38:12.685Z,5.43
2018-09-03T03:42:21.005Z,6.63
2018-09-03T03:46:29.334Z,6.40
2018-09-03T03:50:37.643Z,5.43
2018-09-03T03:54:45.967Z,6.50
2018-09-03T03:58:54.297Z,6.60
2018-09-03T04:03:02.622Z,6.20
2018-09-03T04:07:10.945Z,6.10
2018-09-03T04:11:19.306Z,5.93
2018-09-03T04:15:27.661Z,7.20
2018-09-03T04:19:35.965Z,7.10
2018-09-03T04:23:44.288Z,7.07
2018-09-03T04:27:53.050Z,7.30
2018-09-03T04:32:01.398Z,6.30
2018-09-03T04:36:09.679Z,6.03
2018-09-03T04:40:18.057Z,6.50
2018-09-03T04:44:26.336Z,6.47
2018-09-03T04:48:34.693Z,7.03
2018-09-03T04:52:43.035Z,7.50
2018-09-03T04:56:51.376Z,5.87
2018-09-03T05:00:59.707Z,6.70
2018-09-03T05:05:08.144Z,6.27
2018-09-03T05:09:16.153Z,7.20
2018-09-03T05:13:24.499Z,6.13
2018-09-03T05:17:32.841Z,7.20
2018-09-03T05:21:41.166Z,7.00
2018-09-03T05:25:49.459Z,6.43
2018-09-03T05:29:57.791Z,7.13
2018-09-03T05:34:06.217Z,7.60
2018-09-03T05:38:14.537Z,7.73
2018-09-03T05:42:22.886Z,8.17
2018-09-03T05:46:31.190Z,6.70
2018-09-03T05:50:39.520Z,8.00
2018-09-03T05:54:47.868Z,7.87
2018-09-03T05:58:56.192Z,7.77
2018-09-03T06:03:04.522Z,7.90
2018-09-03T06:07:12.913Z,9.47
2018-09-03T06:11:21.248Z,8.63
2018-09-03T06:15:29.598Z,8.20
2018-09-03T06:19:37.930Z,9.90
2018-09-03T06:23:46.273Z,9.30
2018-09-03T06:27:54.587Z,9.97
2018-09-03T06:32:03.016Z,8.93
2018-09-03T06:36:11.384Z,10.20
2018-09-03T06:40:19.663Z,9.40
2018-09-03T06:44:28.040Z,9.30
2018-09-03T06:48:36.363Z,9.80
2018-09-03T06:52:44.925Z,10.70
2018-09-03T06:56:52.966Z,10.97
2018-09-03T07:01:01.349Z,11.20
2018-09-03T07:05:09.720Z,11.20
2018-09-03T07:09:18.090Z,10.40
2018-09-03T07:13:26.442Z,12.10
2018-09-03T07:17:34.852Z,11.13
2018-09-03T07:21:43.189Z,11.70
2018-09-03T07:25:51.563Z,11.23
2018-09-03T07:29:59.903Z,10.40
2018-09-03T07:34:08.276Z,11.30
2018-09-03T07:38:16.619Z,10.40
2018-09-03T07:42:25.009Z,11.60
2018-09-03T07:46:33.410Z,10.97
2018-09-03T07:50:41.866Z,10.97
2018-09-03T07:54:50.245Z,10.50
2018-09-03T07:58:58.965Z,10.80
2018-09-03T08:03:07.266Z,12.43
2018-09-03T08:07:15.622Z,11.50
2018-09-03T08:11:23.994Z,11.33
2018-09-03T08:15:32.345Z,10.73
2018-09-03T08:19:40.730Z,11.43
2018-09-03T08:23:49.080Z,11.80
2018-09-03T08:27:57.410Z,12.10
2018-09-03T08:32:05.769Z,11.43
2018-09-03T08:36:14.205Z,11.97
2018-09-03T08:40:22.550Z,12.53
2018-09-03T08:44:30.881Z,11.50
2018-09-03T08:48:39.270Z,10.63
2018-09-03T08:52:47.600Z,10.47
2018-09-03T08:56:55.962Z,12.40
2018-09-03T09:01:04.331Z,10.83
2018-09-03T09:05:12.751Z,11.40
2018-09-03T09:09:21.096Z,11.90
2018-09-03T09:13:29.566Z,12.57
2018-09-03T09:17:37.956Z,13.43
2018-09-03T09:21:46.308Z,12.20
2018-09-03T09:25:54.612Z,12.37
2018-09-03T09:30:03.384Z,12.10
2018-09-03T09:34:11.745Z,13.10
2018-09-03T09:38:20.095Z,13.27
2018-09-03T09:42:28.441Z,12.93
2018-09-03T09:46:36.780Z,12.10
2018-09-03T09:50:45.095Z,12.45
2018-09-03T09:54:53.476Z,13.33
2018-09-03T09:59:01.812Z,12.43
2018-09-03T10:03:09.882Z,14.00
2018-09-03T10:07:18.298Z,13.40
2018-09-03T10:11:27.060Z,12.77
2018-09-03T10:15:35.374Z,10.60
2018-09-03T10:19:43.769Z,13.43
2018-09-03T10:23:52.141Z,12.10
2018-09-03T10:28:00.502Z,13.60
2018-09-03T10:32:08.824Z,13.90
2018-09-03T10:36:17.162Z,14.40
2018-09-03T10:40:25.480Z,13.37
2018-09-03T10:44:33.850Z,12.47
2018-09-03T10:48:42.241Z,13.50
2018-09-03T10:52:50.551Z,14.00
2018-09-03T10:56:58.909Z,13.50
2018-09-03T11:01:07.230Z,13.20
2018-09-03T11:05:15.596Z,12.50
2018-09-03T11:09:23.907Z,13.40
2018-09-03T11:13:32.203Z,13.87
2018-09-03T11:17:40.248Z,13.87
2018-09-03T11:21:48.529Z,13.93
2018-09-03T11:25:56.841Z,13.87
2018-09-03T11:30:05.585Z,13.60
2018-09-03T11:34:13.932Z,14.93
2018-09-03T11:38:22.282Z,13.07
2018-09-03T11:42:30.603Z,14.27
2018-09-03T11:46:38.661Z,12.33
2018-09-03T11:50:47.006Z,12.83
2018-09-03T11:54:55.324Z,12.10
2018-09-03T11:59:03.733Z,11.20
2018-09-03T12:03:12.069Z,12.67
2018-09-03T12:07:20.402Z,14.00
2018-09-03T12:11:28.733Z,14.57
2018-09-03T12:15:39.989Z,14.33
2018-09-03T12:19:48.313Z,16.17
2018-09-03T12:23:56.634Z,15.70
2018-09-03T12:28:05.102Z,17.03
2018-09-03T12:32:13.416Z,15.50
2018-09-03T12:36:21.773Z,17.90
2018-09-03T12:40:30.186Z,18.63
2018-09-03T12:44:38.522Z,18.77
2018-09-03T12:48:47.115Z,19.20
2018-09-03T12:52:55.478Z,18.50
2018-09-03T12:57:03.865Z,18.40
2018-09-03T13:01:16.097Z,18.30
2018-09-03T13:05:24.450Z,14.90
2018-09-03T13:09:32.765Z,14.37
2018-09-03T13:13:41.125Z,15.20
2018-09-03T13:17:49.459Z,17.93
2018-09-03T13:21:57.739Z,16.90
2018-09-03T13:26:06.073Z,15.80
2018-09-03T13:30:14.454Z,15.37
2018-09-03T13:34:22.803Z,15.60
2018-09-03T13:38:31.139Z,16.27
2018-09-03T13:42:39.409Z,17.20
2018-09-03T13:46:47.769Z,17.97
2018-09-03T13:50:56.089Z,17.70
2018-09-03T13:55:04.505Z,17.33
2018-09-03T13:59:12.865Z,18.80
2018-09-03T14:03:21.219Z,17.70
2018-09-03T14:07:29.540Z,16.80
2018-09-03T14:11:37.952Z,19.00
2018-09-03T14:15:46.313Z,17.53
2018-09-03T14:19:54.814Z,19.17
2018-09-03T14:24:03.199Z,17.33
2018-09-03T14:28:11.512Z,20.27
2018-09-03T14:32:19.857Z,21.03
2018-09-03T14:36:28.193Z,18.50
2018-09-03T14:40:36.513Z,19.53
2018-09-03T14:44:44.793Z,23.00
2018-09-03T14:48:53.177Z,20.37
2018-09-03T14:53:01.542Z,19.20
2018-09-03T14:57:09.901Z,18.27
2018-09-03T15:01:18.302Z,18.80
2018-09-03T15:05:26.692Z,20.07
2018-09-03T15:09:35.003Z,21.37
2018-09-03T15:13:43.342Z,18.90
2018-09-03T15:17:51.671Z,19.83
2018-09-03T15:22:00.031Z,19.03
2018-09-03T15:26:08.364Z,17.97
2018-09-03T15:30:16.691Z,17.73
2018-09-03T15:34:25.012Z,18.00
2018-09-03T15:38:33.362Z,17.00
2018-09-03T15:42:41.696Z,20.63
2018-09-03T15:46:50.073Z,18.53
2018-09-03T15:50:58.415Z,23.70
2018-09-03T15:55:06.773Z,22.67
2018-09-03T15:59:15.129Z,24.10
2018-09-03T16:03:23.731Z,24.70
2018-09-03T16:07:32.054Z,24.57
2018-09-03T16:11:40.399Z,25.40
2018-09-03T16:15:48.693Z,23.07
2018-09-03T16:19:57.013Z,25.77
2018-09-03T16:24:05.481Z,25.17
2018-09-03T16:28:13.806Z,26.07
2018-09-03T16:32:22.350Z,25.90
2018-09-03T16:36:30.666Z,26.60
2018-09-03T16:40:38.738Z,24.50
2018-09-03T16:44:47.190Z,26.63
2018-09-03T16:48:55.534Z,24.75
2018-09-03T16:53:03.907Z,25.33
2018-09-03T16:57:12.222Z,25.50
2018-09-03T17:01:20.685Z,24.00
2018-09-03T17:05:28.989Z,23.30
2018-09-03T17:09:37.313Z,26.87
2018-09-03T17:13:45.618Z,25.33
2018-09-03T17:17:53.954Z,24.83
2018-09-03T17:22:02.429Z,26.47
2018-09-03T17:26:10.729Z,25.50
2018-09-03T17:30:19.168Z,26.20
2018-09-03T17:34:27.500Z,28.63
2018-09-03T17:38:35.912Z,26.23
2018-09-03T17:42:44.269Z,25.37
2018-09-03T17:46:52.642Z,25.07
2018-09-03T17:51:00.954Z,27.87
2018-09-03T17:55:10.143Z,27.70
2018-09-03T17:59:18.442Z,28.30
2018-09-03T18:03:26.782Z,25.10
2018-09-03T18:07:35.108Z,29.00
2018-09-03T18:11:43.444Z,28.98
2018-09-03T18:15:51.830Z,27.57
2018-09-03T18:20:00.142Z,26.00
2018-09-03T18:24:08.454Z,27.00
2018-09-03T18:28:16.791Z,24.90
2018-09-03T18:32:25.139Z,25.70
2018-09-03T18:36:33.464Z,28.90
2018-09-03T18:40:41.809Z,25.67
2018-09-03T18:44:50.192Z,27.53
2018-09-03T18:48:58.526Z,26.50
2018-09-03T18:53:06.810Z,26.67
2018-09-03T18:57:15.171Z,25.67
2018-09-03T19:01:23.482Z,26.00
2018-09-03T19:05:31.857Z,27.27
2018-09-03T19:09:40.248Z,27.50
2018-09-03T19:13:48.268Z,27.13
2018-09-03T19:17:56.594Z,27.77
2018-09-03T19:22:04.923Z,29.57
2018-09-03T19:26:13.237Z,30.97
2018-09-03T19:30:21.549Z,31.30
2018-09-03T19:34:29.877Z,26.60
2018-09-03T19:38:38.168Z,30.17
2018-09-03T19:42:46.499Z,28.33
2018-09-03T19:46:54.799Z,27.23
2018-09-03T19:51:03.116Z,26.67
2018-09-03T19:55:11.436Z,30.10
2018-09-03T19:59:19.794Z,27.20
2018-09-03T20:03:28.119Z,29.30
2018-09-03T20:07:36.449Z,30.23
2018-09-03T20:11:44.763Z,33.87
2018-09-03T20:15:53.087Z,33.87
2018-09-03T20:20:01.472Z,28.53
2018-09-03T20:24:09.813Z,28.77
2018-09-03T20:28:18.131Z,25.83
2018-09-03T20:32:26.434Z,27.00
2018-09-03T20:36:34.856Z,30.93
2018-09-03T20:40:43.062Z,31.10
2018-09-03T20:44:51.456Z,28.37
2018-09-03T20:48:59.751Z,30.75
2018-09-03T20:53:08.057Z,31.83
2018-09-03T20:57:16.539Z,30.20
2018-09-03T21:01:24.888Z,33.10
2018-09-03T21:05:33.261Z,33.17
2018-09-03T21:09:41.578Z,33.30
2018-09-03T21:13:49.882Z,33.13
2018-09-03T21:17:58.251Z,33.87
2018-09-03T21:22:06.738Z,32.80
2018-09-03T21:26:15.070Z,30.87
2018-09-03T21:30:23.394Z,31.73
2018-09-03T21:34:31.761Z,33.00
2018-09-03T21:38:40.051Z,33.07
2018-09-03T21:42:48.432Z,36.50
2018-09-03T21:46:56.793Z,36.33
2018-09-03T21:51:05.229Z,36.03
2018-09-03T21:55:13.575Z,32.63
2018-09-03T21:59:21.944Z,36.27
2018-09-03T22:03:30.704Z,35.27
2018-09-03T22:07:39.071Z,46.67
2018-09-03T22:11:47.509Z,43.50
2018-09-03T22:15:55.845Z,41.33
2018-09-03T22:20:04.347Z,37.03
2018-09-03T22:24:12.698Z,44.00
2018-09-03T22:28:21.020Z,43.03
2018-09-03T22:32:29.381Z,43.13
2018-09-03T22:36:37.847Z,44.30
2018-09-03T22:40:46.158Z,43.87
2018-09-03T22:44:55.330Z,40.13
2018-09-03T22:49:03.685Z,46.03
2018-09-03T22:53:12.084Z,46.20
2018-09-03T22:57:20.443Z,44.93
2018-09-03T23:01:28.794Z,43.07
2018-09-03T23:05:37.248Z,42.57
2018-09-03T23:09:45.541Z,42.73
2018-09-03T23:13:53.934Z,44.13
2018-09-03T23:18:02.251Z,42.47
2018-09-03T23:22:10.741Z,43.60
2018-09-03T23:26:19.063Z,45.27
2018-09-03T23:30:27.422Z,45.23
2018-09-03T23:34:35.769Z,44.10
2018-09-03T23:38:44.098Z,45.10
2018-09-03T23:42:52.454Z,49.83
2018-09-03T23:47:00.813Z,46.47
2018-09-03T23:51:09.184Z,43.77
2018-09-03T23:55:17.493Z,43.70
2018-09-03T23:59:25.814Z,43.30
